sensor_id;sensor_type;location;lat;lon;timestamp;P1;durP1;ratioP1;P2;durP2;ratioP2
80136;SDS011;69466;55.948;37.484;2023-07-31T00:01:37;9.25;;;4.97;;
80136;SDS011;69466;55.948;37.484;2023-07-31T00:04:03;8.13;;;4.78;;
80136;SDS011;69466;55.948;37.484;2023-07-31T00:06:30;9.40;;;4.22;;
80136;SDS011;69466;55.948;37.484;2023-07-31T00:08:55;8.25;;;3.88;;
80136;SDS011;69466;55.948;37.484;2023-07-31T00:11:21;9.98;;;5.75;;
80136;SDS011;69466;55.948;37.484;2023-07-31T00:13:47;7.95;;;5.32;;
80136;SDS011;69466;55.948;37.484;2023-07-31T00:16:13;7.70;;;4.78;;
80136;SDS011;69466;55.948;37.484;2023-07-31T00:18:39;9.48;;;4.80;;
80136;SDS011;69466;55.948;37.484;2023-07-31T00:21:05;9.30;;;4.70;;
80136;SDS011;69466;55.948;37.484;2023-07-31T00:23:30;8.25;;;4.63;;
80136;SDS011;69466;55.948;37.484;2023-07-31T00:25:56;7.65;;;4.43;;
80136;SDS011;69466;55.948;37.484;2023-07-31T00:28:22;10.45;;;5.20;;
80136;SDS011;69466;55.948;37.484;2023-07-31T00:30:48;11.23;;;4.55;;
80136;SDS011;69466;55.948;37.484;2023-07-31T00:33:14;8.57;;;4.57;;
80136;SDS011;69466;55.948;37.484;2023-07-31T00:35:40;7.30;;;4.22;;
80136;SDS011;69466;55.948;37.484;2023-07-31T00:38:05;8.55;;;4.55;;
80136;SDS011;69466;55.948;37.484;2023-07-31T00:40:35;9.10;;;4.90;;
80136;SDS011;69466;55.948;37.484;2023-07-31T00:43:03;7.00;;;4.35;;
80136;SDS011;69466;55.948;37.484;2023-07-31T00:45:29;7.82;;;3.95;;
80136;SDS011;69466;55.948;37.484;2023-07-31T00:47:55;10.95;;;5.03;;
80136;SDS011;69466;55.948;37.484;2023-07-31T00:50:24;8.38;;;5.13;;
80136;SDS011;69466;55.948;37.484;2023-07-31T00:52:51;7.50;;;4.82;;
80136;SDS011;69466;55.948;37.484;2023-07-31T00:55:17;10.20;;;5.35;;
80136;SDS011;69466;55.948;37.484;2023-07-31T00:57:43;7.45;;;4.22;;
80136;SDS011;69466;55.948;37.484;2023-07-31T01:00:11;11.30;;;4.65;;
80136;SDS011;69466;55.948;37.484;2023-07-31T01:02:37;8.13;;;4.07;;
80136;SDS011;69466;55.948;37.484;2023-07-31T01:05:03;8.10;;;3.88;;
80136;SDS011;69466;55.948;37.484;2023-07-31T01:10:21;7.57;;;4.32;;
80136;SDS011;69466;55.948;37.484;2023-07-31T01:12:51;8.68;;;4.50;;
80136;SDS011;69466;55.948;37.484;2023-07-31T01:15:20;6.80;;;3.75;;
80136;SDS011;69466;55.948;37.484;2023-07-31T01:17:46;11.50;;;4.32;;
80136;SDS011;69466;55.948;37.484;2023-07-31T01:20:14;9.27;;;3.72;;
80136;SDS011;69466;55.948;37.484;2023-07-31T01:22:49;9.77;;;4.25;;
80136;SDS011;69466;55.948;37.484;2023-07-31T01:27:58;8.60;;;5.00;;
80136;SDS011;69466;55.948;37.484;2023-07-31T01:30:27;11.70;;;5.68;;
80136;SDS011;69466;55.948;37.484;2023-07-31T01:32:59;10.57;;;6.63;;
80136;SDS011;69466;55.948;37.484;2023-07-31T01:35:29;10.52;;;5.97;;
80136;SDS011;69466;55.948;37.484;2023-07-31T01:37:55;11.73;;;8.05;;
80136;SDS011;69466;55.948;37.484;2023-07-31T01:40:21;12.95;;;7.70;;
80136;SDS011;69466;55.948;37.484;2023-07-31T01:42:47;10.70;;;6.43;;
80136;SDS011;69466;55.948;37.484;2023-07-31T01:45:14;11.93;;;6.82;;
80136;SDS011;69466;55.948;37.484;2023-07-31T01:47:40;10.25;;;6.32;;
80136;SDS011;69466;55.948;37.484;2023-07-31T01:50:06;10.35;;;5.68;;
80136;SDS011;69466;55.948;37.484;2023-07-31T01:52:32;9.02;;;5.13;;
80136;SDS011;69466;55.948;37.484;2023-07-31T01:54:57;10.05;;;5.32;;
80136;SDS011;69466;55.948;37.484;2023-07-31T01:57:23;9.27;;;4.90;;
80136;SDS011;69466;55.948;37.484;2023-07-31T01:59:50;8.60;;;5.82;;
80136;SDS011;69466;55.948;37.484;2023-07-31T02:02:16;10.73;;;5.50;;
80136;SDS011;69466;55.948;37.484;2023-07-31T02:04:42;9.00;;;5.15;;
80136;SDS011;69466;55.948;37.484;2023-07-31T02:07:08;8.55;;;4.85;;
80136;SDS011;69466;55.948;37.484;2023-07-31T02:09:34;8.45;;;4.88;;
80136;SDS011;69466;55.948;37.484;2023-07-31T02:16:47;10.80;;;6.30;;
80136;SDS011;69466;55.948;37.484;2023-07-31T02:19:12;13.70;;;8.20;;
80136;SDS011;69466;55.948;37.484;2023-07-31T02:21:38;10.57;;;5.15;;
80136;SDS011;69466;55.948;37.484;2023-07-31T02:24:04;10.90;;;5.10;;
80136;SDS011;69466;55.948;37.484;2023-07-31T02:26:30;9.65;;;5.15;;
80136;SDS011;69466;55.948;37.484;2023-07-31T02:28:56;13.27;;;6.68;;
80136;SDS011;69466;55.948;37.484;2023-07-31T02:31:22;6.75;;;4.82;;
80136;SDS011;69466;55.948;37.484;2023-07-31T02:33:47;7.57;;;4.57;;
80136;SDS011;69466;55.948;37.484;2023-07-31T02:36:13;7.13;;;4.40;;
80136;SDS011;69466;55.948;37.484;2023-07-31T02:38:40;8.15;;;4.78;;
80136;SDS011;69466;55.948;37.484;2023-07-31T02:41:05;10.57;;;4.40;;
80136;SDS011;69466;55.948;37.484;2023-07-31T02:43:31;8.63;;;4.43;;
80136;SDS011;69466;55.948;37.484;2023-07-31T02:45:57;8.10;;;3.85;;
80136;SDS011;69466;55.948;37.484;2023-07-31T02:48:24;10.90;;;4.65;;
80136;SDS011;69466;55.948;37.484;2023-07-31T02:50:50;11.88;;;4.88;;
80136;SDS011;69466;55.948;37.484;2023-07-31T02:53:16;8.73;;;3.45;;
80136;SDS011;69466;55.948;37.484;2023-07-31T02:55:42;5.32;;;3.22;;
80136;SDS011;69466;55.948;37.484;2023-07-31T02:58:07;6.22;;;3.45;;
80136;SDS011;69466;55.948;37.484;2023-07-31T03:00:33;7.35;;;4.10;;
80136;SDS011;69466;55.948;37.484;2023-07-31T03:02:59;5.80;;;3.50;;
80136;SDS011;69466;55.948;37.484;2023-07-31T03:05:27;6.32;;;3.40;;
80136;SDS011;69466;55.948;37.484;2023-07-31T03:07:52;12.48;;;4.45;;
80136;SDS011;69466;55.948;37.484;2023-07-31T03:10:18;6.25;;;3.53;;
80136;SDS011;69466;55.948;37.484;2023-07-31T03:12:48;6.78;;;3.75;;
80136;SDS011;69466;55.948;37.484;2023-07-31T03:15:14;7.13;;;4.80;;
80136;SDS011;69466;55.948;37.484;2023-07-31T03:17:40;7.82;;;3.97;;
80136;SDS011;69466;55.948;37.484;2023-07-31T03:20:05;7.82;;;4.20;;
80136;SDS011;69466;55.948;37.484;2023-07-31T03:22:32;8.60;;;3.60;;
80136;SDS011;69466;55.948;37.484;2023-07-31T03:24:58;8.85;;;3.72;;
80136;SDS011;69466;55.948;37.484;2023-07-31T03:27:23;9.20;;;4.15;;
80136;SDS011;69466;55.948;37.484;2023-07-31T03:29:49;5.63;;;3.22;;
80136;SDS011;69466;55.948;37.484;2023-07-31T03:32:16;8.70;;;3.47;;
80136;SDS011;69466;55.948;37.484;2023-07-31T03:34:42;6.65;;;2.90;;
80136;SDS011;69466;55.948;37.484;2023-07-31T03:37:08;8.40;;;2.97;;
80136;SDS011;69466;55.948;37.484;2023-07-31T03:39:37;5.78;;;2.92;;
80136;SDS011;69466;55.948;37.484;2023-07-31T03:42:02;6.45;;;3.05;;
80136;SDS011;69466;55.948;37.484;2023-07-31T03:44:28;4.55;;;2.60;;
80136;SDS011;69466;55.948;37.484;2023-07-31T03:46:54;5.40;;;2.88;;
80136;SDS011;69466;55.948;37.484;2023-07-31T03:49:20;5.55;;;2.97;;
80136;SDS011;69466;55.948;37.484;2023-07-31T03:51:46;5.97;;;3.42;;
80136;SDS011;69466;55.948;37.484;2023-07-31T03:54:12;17.27;;;4.28;;
80136;SDS011;69466;55.948;37.484;2023-07-31T03:56:38;5.78;;;2.63;;
80136;SDS011;69466;55.948;37.484;2023-07-31T03:59:04;5.60;;;2.70;;
80136;SDS011;69466;55.948;37.484;2023-07-31T04:01:30;5.57;;;3.22;;
80136;SDS011;69466;55.948;37.484;2023-07-31T04:03:56;5.80;;;2.90;;
80136;SDS011;69466;55.948;37.484;2023-07-31T04:06:22;8.07;;;3.05;;
80136;SDS011;69466;55.948;37.484;2023-07-31T04:08:47;6.15;;;2.63;;
80136;SDS011;69466;55.948;37.484;2023-07-31T04:11:13;5.60;;;2.83;;
80136;SDS011;69466;55.948;37.484;2023-07-31T04:13:39;4.85;;;2.72;;
80136;SDS011;69466;55.948;37.484;2023-07-31T04:16:04;5.57;;;2.30;;
80136;SDS011;69466;55.948;37.484;2023-07-31T04:18:30;6.97;;;2.63;;
80136;SDS011;69466;55.948;37.484;2023-07-31T04:20:57;6.53;;;2.65;;
80136;SDS011;69466;55.948;37.484;2023-07-31T04:23:24;4.80;;;2.78;;
80136;SDS011;69466;55.948;37.484;2023-07-31T04:25:50;4.55;;;2.70;;
80136;SDS011;69466;55.948;37.484;2023-07-31T04:28:16;5.00;;;2.28;;
80136;SDS011;69466;55.948;37.484;2023-07-31T04:30:42;5.25;;;2.90;;
80136;SDS011;69466;55.948;37.484;2023-07-31T04:33:09;5.07;;;2.67;;
80136;SDS011;69466;55.948;37.484;2023-07-31T04:35:35;4.97;;;2.25;;
80136;SDS011;69466;55.948;37.484;2023-07-31T04:38:00;4.90;;;2.42;;
80136;SDS011;69466;55.948;37.484;2023-07-31T04:40:26;6.32;;;2.33;;
80136;SDS011;69466;55.948;37.484;2023-07-31T04:42:53;5.53;;;2.50;;
80136;SDS011;69466;55.948;37.484;2023-07-31T04:45:19;5.90;;;2.53;;
80136;SDS011;69466;55.948;37.484;2023-07-31T04:47:45;7.30;;;3.05;;
80136;SDS011;69466;55.948;37.484;2023-07-31T04:50:11;5.32;;;2.22;;
80136;SDS011;69466;55.948;37.484;2023-07-31T04:52:36;5.95;;;2.55;;
80136;SDS011;69466;55.948;37.484;2023-07-31T04:55:02;5.95;;;2.30;;
80136;SDS011;69466;55.948;37.484;2023-07-31T04:57:30;6.97;;;2.10;;
80136;SDS011;69466;55.948;37.484;2023-07-31T04:59:56;4.55;;;2.05;;
80136;SDS011;69466;55.948;37.484;2023-07-31T05:02:22;6.30;;;2.33;;
80136;SDS011;69466;55.948;37.484;2023-07-31T05:04:48;6.53;;;2.30;;
80136;SDS011;69466;55.948;37.484;2023-07-31T05:07:13;4.63;;;1.80;;
80136;SDS011;69466;55.948;37.484;2023-07-31T05:09:39;7.00;;;2.40;;
80136;SDS011;69466;55.948;37.484;2023-07-31T05:12:05;4.65;;;1.98;;
80136;SDS011;69466;55.948;37.484;2023-07-31T05:14:31;8.20;;;1.95;;
80136;SDS011;69466;55.948;37.484;2023-07-31T05:16:57;6.82;;;2.28;;
80136;SDS011;69466;55.948;37.484;2023-07-31T05:19:23;7.55;;;1.80;;
80136;SDS011;69466;55.948;37.484;2023-07-31T05:21:49;4.85;;;1.70;;
80136;SDS011;69466;55.948;37.484;2023-07-31T05:24:14;4.95;;;1.77;;
80136;SDS011;69466;55.948;37.484;2023-07-31T05:26:40;6.03;;;1.63;;
80136;SDS011;69466;55.948;37.484;2023-07-31T05:29:06;6.55;;;1.60;;
80136;SDS011;69466;55.948;37.484;2023-07-31T05:31:32;3.92;;;1.90;;
80136;SDS011;69466;55.948;37.484;2023-07-31T05:33:58;4.28;;;1.55;;
80136;SDS011;69466;55.948;37.484;2023-07-31T05:36:24;3.30;;;1.58;;
80136;SDS011;69466;55.948;37.484;2023-07-31T05:38:49;6.00;;;1.80;;
80136;SDS011;69466;55.948;37.484;2023-07-31T05:41:15;3.55;;;1.33;;
80136;SDS011;69466;55.948;37.484;2023-07-31T05:43:41;4.88;;;1.38;;
80136;SDS011;69466;55.948;37.484;2023-07-31T05:46:08;12.45;;;2.05;;
80136;SDS011;69466;55.948;37.484;2023-07-31T05:48:34;3.88;;;1.48;;
80136;SDS011;69466;55.948;37.484;2023-07-31T05:51:01;9.07;;;1.88;;
80136;SDS011;69466;55.948;37.484;2023-07-31T05:53:26;3.72;;;1.17;;
80136;SDS011;69466;55.948;37.484;2023-07-31T05:55:52;4.63;;;1.92;;
80136;SDS011;69466;55.948;37.484;2023-07-31T05:58:18;3.75;;;1.73;;
80136;SDS011;69466;55.948;37.484;2023-07-31T06:00:44;6.63;;;2.05;;
80136;SDS011;69466;55.948;37.484;2023-07-31T06:03:10;5.18;;;1.67;;
80136;SDS011;69466;55.948;37.484;2023-07-31T06:05:36;4.05;;;1.90;;
80136;SDS011;69466;55.948;37.484;2023-07-31T06:08:02;4.93;;;2.08;;
80136;SDS011;69466;55.948;37.484;2023-07-31T06:10:28;4.55;;;1.77;;
80136;SDS011;69466;55.948;37.484;2023-07-31T06:12:53;4.18;;;1.75;;
80136;SDS011;69466;55.948;37.484;2023-07-31T06:15:19;4.80;;;1.50;;
80136;SDS011;69466;55.948;37.484;2023-07-31T06:17:45;5.35;;;1.33;;
80136;SDS011;69466;55.948;37.484;2023-07-31T06:20:11;8.77;;;1.30;;
80136;SDS011;69466;55.948;37.484;2023-07-31T06:22:37;2.50;;;1.05;;
80136;SDS011;69466;55.948;37.484;2023-07-31T06:25:03;4.03;;;1.30;;
80136;SDS011;69466;55.948;37.484;2023-07-31T06:27:30;3.30;;;1.15;;
80136;SDS011;69466;55.948;37.484;2023-07-31T06:29:56;4.57;;;1.30;;
80136;SDS011;69466;55.948;37.484;2023-07-31T06:32:23;2.90;;;1.25;;
80136;SDS011;69466;55.948;37.484;2023-07-31T06:34:49;3.72;;;1.50;;
80136;SDS011;69466;55.948;37.484;2023-07-31T06:37:15;4.82;;;1.25;;
80136;SDS011;69466;55.948;37.484;2023-07-31T06:39:42;4.85;;;1.27;;
80136;SDS011;69466;55.948;37.484;2023-07-31T06:42:08;3.58;;;1.30;;
80136;SDS011;69466;55.948;37.484;2023-07-31T06:44:34;3.20;;;1.40;;
80136;SDS011;69466;55.948;37.484;2023-07-31T06:47:01;3.78;;;1.10;;
80136;SDS011;69466;55.948;37.484;2023-07-31T06:49:27;3.08;;;1.00;;
80136;SDS011;69466;55.948;37.484;2023-07-31T06:51:53;4.57;;;1.35;;
80136;SDS011;69466;55.948;37.484;2023-07-31T06:54:19;2.72;;;1.00;;
80136;SDS011;69466;55.948;37.484;2023-07-31T06:56:45;4.18;;;1.00;;
80136;SDS011;69466;55.948;37.484;2023-07-31T06:59:11;5.40;;;1.35;;
80136;SDS011;69466;55.948;37.484;2023-07-31T07:01:36;2.40;;;1.00;;
80136;SDS011;69466;55.948;37.484;2023-07-31T07:04:02;2.70;;;0.80;;
80136;SDS011;69466;55.948;37.484;2023-07-31T07:06:28;2.83;;;0.90;;
80136;SDS011;69466;55.948;37.484;2023-07-31T07:08:54;3.20;;;0.95;;
80136;SDS011;69466;55.948;37.484;2023-07-31T07:11:20;2.80;;;1.10;;
80136;SDS011;69466;55.948;37.484;2023-07-31T07:13:46;4.45;;;1.10;;
80136;SDS011;69466;55.948;37.484;2023-07-31T07:16:12;3.28;;;1.10;;
80136;SDS011;69466;55.948;37.484;2023-07-31T07:18:38;2.15;;;0.90;;
80136;SDS011;69466;55.948;37.484;2023-07-31T07:21:04;2.13;;;0.90;;
80136;SDS011;69466;55.948;37.484;2023-07-31T07:23:30;3.70;;;0.98;;
80136;SDS011;69466;55.948;37.484;2023-07-31T07:25:56;3.33;;;1.08;;
80136;SDS011;69466;55.948;37.484;2023-07-31T07:28:22;3.33;;;0.90;;
80136;SDS011;69466;55.948;37.484;2023-07-31T07:30:51;3.72;;;1.13;;
80136;SDS011;69466;55.948;37.484;2023-07-31T07:33:19;5.10;;;1.00;;
80136;SDS011;69466;55.948;37.484;2023-07-31T07:35:45;7.95;;;1.95;;
80136;SDS011;69466;55.948;37.484;2023-07-31T07:38:11;2.42;;;1.02;;
80136;SDS011;69466;55.948;37.484;2023-07-31T07:40:40;3.53;;;1.08;;
80136;SDS011;69466;55.948;37.484;2023-07-31T07:43:07;3.05;;;1.00;;
80136;SDS011;69466;55.948;37.484;2023-07-31T07:45:32;4.05;;;1.17;;
80136;SDS011;69466;55.948;37.484;2023-07-31T07:47:58;5.32;;;1.20;;
80136;SDS011;69466;55.948;37.484;2023-07-31T07:50:24;8.27;;;1.02;;
80136;SDS011;69466;55.948;37.484;2023-07-31T07:52:50;3.47;;;1.17;;
80136;SDS011;69466;55.948;37.484;2023-07-31T07:55:16;7.07;;;1.33;;
80136;SDS011;69466;55.948;37.484;2023-07-31T07:57:42;4.18;;;1.50;;
80136;SDS011;69466;55.948;37.484;2023-07-31T08:00:09;4.25;;;1.20;;
80136;SDS011;69466;55.948;37.484;2023-07-31T08:02:43;5.07;;;1.17;;
80136;SDS011;69466;55.948;37.484;2023-07-31T08:05:09;4.38;;;1.40;;
80136;SDS011;69466;55.948;37.484;2023-07-31T08:07:35;2.65;;;0.88;;
80136;SDS011;69466;55.948;37.484;2023-07-31T08:10:01;4.97;;;1.30;;
80136;SDS011;69466;55.948;37.484;2023-07-31T08:12:31;3.38;;;1.08;;
80136;SDS011;69466;55.948;37.484;2023-07-31T08:14:57;3.13;;;1.20;;
80136;SDS011;69466;55.948;37.484;2023-07-31T08:17:23;2.78;;;1.00;;
80136;SDS011;69466;55.948;37.484;2023-07-31T08:19:48;4.10;;;1.30;;
80136;SDS011;69466;55.948;37.484;2023-07-31T08:22:14;3.20;;;1.13;;
80136;SDS011;69466;55.948;37.484;2023-07-31T08:24:40;2.78;;;1.30;;
80136;SDS011;69466;55.948;37.484;2023-07-31T08:27:06;5.03;;;1.20;;
80136;SDS011;69466;55.948;37.484;2023-07-31T08:29:32;6.57;;;1.25;;
80136;SDS011;69466;55.948;37.484;2023-07-31T08:31:58;3.35;;;1.08;;
80136;SDS011;69466;55.948;37.484;2023-07-31T08:34:24;4.18;;;1.20;;
80136;SDS011;69466;55.948;37.484;2023-07-31T08:36:50;3.22;;;1.08;;
80136;SDS011;69466;55.948;37.484;2023-07-31T08:39:16;3.08;;;1.05;;
80136;SDS011;69466;55.948;37.484;2023-07-31T08:41:42;4.03;;;1.13;;
80136;SDS011;69466;55.948;37.484;2023-07-31T08:44:09;3.80;;;1.20;;
80136;SDS011;69466;55.948;37.484;2023-07-31T08:46:36;8.07;;;1.83;;
80136;SDS011;69466;55.948;37.484;2023-07-31T08:49:06;5.00;;;1.40;;
80136;SDS011;69466;55.948;37.484;2023-07-31T08:51:34;7.47;;;1.40;;
80136;SDS011;69466;55.948;37.484;2023-07-31T08:54:01;3.50;;;1.10;;
80136;SDS011;69466;55.948;37.484;2023-07-31T08:56:29;2.67;;;0.93;;
80136;SDS011;69466;55.948;37.484;2023-07-31T08:58:58;3.70;;;1.33;;
80136;SDS011;69466;55.948;37.484;2023-07-31T09:01:28;2.85;;;1.05;;
80136;SDS011;69466;55.948;37.484;2023-07-31T09:03:56;4.97;;;1.60;;
80136;SDS011;69466;55.948;37.484;2023-07-31T09:06:24;4.35;;;1.88;;
80136;SDS011;69466;55.948;37.484;2023-07-31T09:08:53;4.40;;;1.33;;
80136;SDS011;69466;55.948;37.484;2023-07-31T09:11:19;3.30;;;1.30;;
80136;SDS011;69466;55.948;37.484;2023-07-31T09:13:46;4.25;;;1.38;;
80136;SDS011;69466;55.948;37.484;2023-07-31T09:16:14;3.28;;;1.38;;
80136;SDS011;69466;55.948;37.484;2023-07-31T09:18:55;5.57;;;1.90;;
80136;SDS011;69466;55.948;37.484;2023-07-31T09:21:22;3.28;;;1.50;;
80136;SDS011;69466;55.948;37.484;2023-07-31T09:23:49;4.07;;;1.77;;
80136;SDS011;69466;55.948;37.484;2023-07-31T09:26:34;2.85;;;1.50;;
80136;SDS011;69466;55.948;37.484;2023-07-31T09:29:05;4.72;;;2.38;;
80136;SDS011;69466;55.948;37.484;2023-07-31T09:31:43;3.65;;;1.50;;
80136;SDS011;69466;55.948;37.484;2023-07-31T09:34:10;4.63;;;1.50;;
80136;SDS011;69466;55.948;37.484;2023-07-31T09:36:40;5.03;;;1.60;;
80136;SDS011;69466;55.948;37.484;2023-07-31T09:39:10;3.80;;;1.63;;
80136;SDS011;69466;55.948;37.484;2023-07-31T09:41:41;6.03;;;1.80;;
80136;SDS011;69466;55.948;37.484;2023-07-31T09:44:09;4.47;;;1.90;;
80136;SDS011;69466;55.948;37.484;2023-07-31T09:46:35;4.15;;;1.60;;
80136;SDS011;69466;55.948;37.484;2023-07-31T09:49:10;5.30;;;1.50;;
80136;SDS011;69466;55.948;37.484;2023-07-31T09:51:37;4.18;;;1.50;;
80136;SDS011;69466;55.948;37.484;2023-07-31T09:54:11;3.40;;;1.30;;
80136;SDS011;69466;55.948;37.484;2023-07-31T09:56:47;3.38;;;1.33;;
80136;SDS011;69466;55.948;37.484;2023-07-31T09:59:15;4.45;;;1.60;;
80136;SDS011;69466;55.948;37.484;2023-07-31T10:01:43;4.07;;;2.08;;
80136;SDS011;69466;55.948;37.484;2023-07-31T10:04:12;3.30;;;1.58;;
80136;SDS011;69466;55.948;37.484;2023-07-31T10:06:39;4.80;;;1.52;;
80136;SDS011;69466;55.948;37.484;2023-07-31T10:09:09;5.00;;;1.60;;
80136;SDS011;69466;55.948;37.484;2023-07-31T10:11:42;4.68;;;1.60;;
80136;SDS011;69466;55.948;37.484;2023-07-31T10:14:15;4.95;;;1.67;;
80136;SDS011;69466;55.948;37.484;2023-07-31T10:16:45;3.42;;;1.70;;
80136;SDS011;69466;55.948;37.484;2023-07-31T10:19:11;3.40;;;1.50;;
80136;SDS011;69466;55.948;37.484;2023-07-31T10:21:37;3.72;;;1.70;;
80136;SDS011;69466;55.948;37.484;2023-07-31T10:24:03;3.85;;;1.70;;
80136;SDS011;69466;55.948;37.484;2023-07-31T10:26:34;5.97;;;1.88;;
80136;SDS011;69466;55.948;37.484;2023-07-31T10:29:04;5.43;;;1.60;;
80136;SDS011;69466;55.948;37.484;2023-07-31T10:31:31;6.35;;;1.60;;
80136;SDS011;69466;55.948;37.484;2023-07-31T10:33:58;3.63;;;1.40;;
80136;SDS011;69466;55.948;37.484;2023-07-31T10:36:25;4.50;;;1.77;;
80136;SDS011;69466;55.948;37.484;2023-07-31T10:38:52;4.15;;;2.10;;
80136;SDS011;69466;55.948;37.484;2023-07-31T10:41:27;5.05;;;1.98;;
80136;SDS011;69466;55.948;37.484;2023-07-31T10:43:56;4.75;;;2.20;;
80136;SDS011;69466;55.948;37.484;2023-07-31T10:46:23;3.33;;;1.70;;
80136;SDS011;69466;55.948;37.484;2023-07-31T10:48:57;4.03;;;1.50;;
80136;SDS011;69466;55.948;37.484;2023-07-31T10:51:31;5.07;;;1.85;;
80136;SDS011;69466;55.948;37.484;2023-07-31T10:54:15;6.38;;;2.55;;
80136;SDS011;69466;55.948;37.484;2023-07-31T10:56:46;5.78;;;2.42;;
80136;SDS011;69466;55.948;37.484;2023-07-31T10:59:16;7.18;;;3.22;;
80136;SDS011;69466;55.948;37.484;2023-07-31T11:01:50;3.83;;;2.00;;
80136;SDS011;69466;55.948;37.484;2023-07-31T11:04:21;4.97;;;2.35;;
80136;SDS011;69466;55.948;37.484;2023-07-31T11:06:58;5.30;;;2.13;;
80136;SDS011;69466;55.948;37.484;2023-07-31T11:09:29;9.77;;;2.25;;
80136;SDS011;69466;55.948;37.484;2023-07-31T11:11:57;5.10;;;2.10;;
80136;SDS011;69466;55.948;37.484;2023-07-31T11:14:23;3.88;;;1.73;;
80136;SDS011;69466;55.948;37.484;2023-07-31T11:16:52;3.17;;;1.67;;
80136;SDS011;69466;55.948;37.484;2023-07-31T11:19:21;4.40;;;1.95;;
80136;SDS011;69466;55.948;37.484;2023-07-31T11:21:49;4.47;;;1.73;;
80136;SDS011;69466;55.948;37.484;2023-07-31T11:24:16;3.60;;;1.63;;
80136;SDS011;69466;55.948;37.484;2023-07-31T11:26:49;3.55;;;1.75;;
80136;SDS011;69466;55.948;37.484;2023-07-31T11:29:16;3.55;;;1.63;;
80136;SDS011;69466;55.948;37.484;2023-07-31T11:31:42;3.90;;;1.63;;
80136;SDS011;69466;55.948;37.484;2023-07-31T11:34:10;5.25;;;2.17;;
80136;SDS011;69466;55.948;37.484;2023-07-31T11:36:36;4.30;;;1.67;;
80136;SDS011;69466;55.948;37.484;2023-07-31T11:39:07;5.70;;;1.80;;
80136;SDS011;69466;55.948;37.484;2023-07-31T11:41:34;4.22;;;1.98;;
80136;SDS011;69466;55.948;37.484;2023-07-31T11:44:00;4.40;;;2.00;;
80136;SDS011;69466;55.948;37.484;2023-07-31T11:46:30;4.15;;;2.22;;
80136;SDS011;69466;55.948;37.484;2023-07-31T11:49:00;4.55;;;2.00;;
80136;SDS011;69466;55.948;37.484;2023-07-31T11:51:27;3.92;;;2.00;;
80136;SDS011;69466;55.948;37.484;2023-07-31T11:53:56;4.60;;;1.67;;
80136;SDS011;69466;55.948;37.484;2023-07-31T11:56:25;4.15;;;2.08;;
80136;SDS011;69466;55.948;37.484;2023-07-31T11:58:53;4.85;;;1.70;;
80136;SDS011;69466;55.948;37.484;2023-07-31T12:01:22;4.25;;;1.63;;
80136;SDS011;69466;55.948;37.484;2023-07-31T12:03:49;8.10;;;2.08;;
80136;SDS011;69466;55.948;37.484;2023-07-31T12:06:16;6.05;;;2.40;;
80136;SDS011;69466;55.948;37.484;2023-07-31T12:08:42;5.15;;;2.17;;
80136;SDS011;69466;55.948;37.484;2023-07-31T12:11:08;5.13;;;2.10;;
80136;SDS011;69466;55.948;37.484;2023-07-31T12:13:38;5.55;;;2.25;;
80136;SDS011;69466;55.948;37.484;2023-07-31T12:16:04;5.28;;;2.40;;
80136;SDS011;69466;55.948;37.484;2023-07-31T12:18:34;6.53;;;2.58;;
80136;SDS011;69466;55.948;37.484;2023-07-31T12:21:03;7.30;;;2.60;;
80136;SDS011;69466;55.948;37.484;2023-07-31T12:23:32;6.10;;;3.17;;
80136;SDS011;69466;55.948;37.484;2023-07-31T12:26:06;4.18;;;2.17;;
80136;SDS011;69466;55.948;37.484;2023-07-31T12:28:35;4.28;;;2.42;;
80136;SDS011;69466;55.948;37.484;2023-07-31T12:31:04;4.70;;;2.20;;
80136;SDS011;69466;55.948;37.484;2023-07-31T12:33:33;5.47;;;2.65;;
80136;SDS011;69466;55.948;37.484;2023-07-31T12:36:04;4.28;;;2.10;;
80136;SDS011;69466;55.948;37.484;2023-07-31T12:38:33;5.60;;;2.20;;
80136;SDS011;69466;55.948;37.484;2023-07-31T12:40:59;5.53;;;2.30;;
80136;SDS011;69466;55.948;37.484;2023-07-31T12:43:25;3.95;;;2.15;;
80136;SDS011;69466;55.948;37.484;2023-07-31T12:45:51;4.68;;;2.03;;
80136;SDS011;69466;55.948;37.484;2023-07-31T12:48:17;5.03;;;2.28;;
80136;SDS011;69466;55.948;37.484;2023-07-31T12:50:43;6.53;;;2.42;;
80136;SDS011;69466;55.948;37.484;2023-07-31T12:53:09;5.82;;;2.50;;
80136;SDS011;69466;55.948;37.484;2023-07-31T12:55:34;4.95;;;2.20;;
80136;SDS011;69466;55.948;37.484;2023-07-31T12:58:03;4.72;;;2.10;;
80136;SDS011;69466;55.948;37.484;2023-07-31T13:00:29;5.30;;;2.08;;
80136;SDS011;69466;55.948;37.484;2023-07-31T13:02:55;4.63;;;2.00;;
80136;SDS011;69466;55.948;37.484;2023-07-31T13:05:21;4.15;;;2.45;;
80136;SDS011;69466;55.948;37.484;2023-07-31T13:07:48;5.78;;;2.13;;
80136;SDS011;69466;55.948;37.484;2023-07-31T13:10:14;5.90;;;2.25;;
80136;SDS011;69466;55.948;37.484;2023-07-31T13:12:40;4.47;;;2.05;;
80136;SDS011;69466;55.948;37.484;2023-07-31T13:15:06;6.05;;;2.25;;
80136;SDS011;69466;55.948;37.484;2023-07-31T13:17:35;5.68;;;1.85;;
80136;SDS011;69466;55.948;37.484;2023-07-31T13:20:01;4.20;;;2.20;;
80136;SDS011;69466;55.948;37.484;2023-07-31T13:22:31;3.85;;;1.83;;
80136;SDS011;69466;55.948;37.484;2023-07-31T13:24:57;5.50;;;2.10;;
80136;SDS011;69466;55.948;37.484;2023-07-31T13:27:23;6.60;;;2.45;;
80136;SDS011;69466;55.948;37.484;2023-07-31T13:29:50;4.45;;;1.60;;
80136;SDS011;69466;55.948;37.484;2023-07-31T13:32:18;3.67;;;1.88;;
80136;SDS011;69466;55.948;37.484;2023-07-31T13:34:45;6.47;;;2.20;;
80136;SDS011;69466;55.948;37.484;2023-07-31T13:37:12;5.25;;;2.13;;
80136;SDS011;69466;55.948;37.484;2023-07-31T13:39:38;5.00;;;2.10;;
80136;SDS011;69466;55.948;37.484;2023-07-31T13:42:05;5.88;;;2.47;;
80136;SDS011;69466;55.948;37.484;2023-07-31T13:44:36;4.35;;;1.98;;
80136;SDS011;69466;55.948;37.484;2023-07-31T13:47:03;4.57;;;2.08;;
80136;SDS011;69466;55.948;37.484;2023-07-31T13:49:30;5.13;;;1.90;;
80136;SDS011;69466;55.948;37.484;2023-07-31T13:51:56;4.80;;;2.55;;
80136;SDS011;69466;55.948;37.484;2023-07-31T13:54:23;6.00;;;2.20;;
80136;SDS011;69466;55.948;37.484;2023-07-31T13:56:49;4.18;;;2.15;;
80136;SDS011;69466;55.948;37.484;2023-07-31T13:59:15;4.80;;;1.80;;
80136;SDS011;69466;55.948;37.484;2023-07-31T14:01:42;7.90;;;2.72;;
80136;SDS011;69466;55.948;37.484;2023-07-31T14:04:09;3.50;;;1.85;;
80136;SDS011;69466;55.948;37.484;2023-07-31T14:06:35;4.60;;;2.55;;
80136;SDS011;69466;55.948;37.484;2023-07-31T14:09:01;7.28;;;3.42;;
80136;SDS011;69466;55.948;37.484;2023-07-31T14:11:28;6.18;;;2.28;;
80136;SDS011;69466;55.948;37.484;2023-07-31T14:13:54;5.38;;;2.35;;
80136;SDS011;69466;55.948;37.484;2023-07-31T14:16:21;5.18;;;2.60;;
80136;SDS011;69466;55.948;37.484;2023-07-31T14:18:47;4.50;;;2.30;;
80136;SDS011;69466;55.948;37.484;2023-07-31T14:21:13;5.68;;;2.33;;
80136;SDS011;69466;55.948;37.484;2023-07-31T14:23:39;4.45;;;2.08;;
80136;SDS011;69466;55.948;37.484;2023-07-31T14:26:05;5.47;;;2.10;;
80136;SDS011;69466;55.948;37.484;2023-07-31T14:28:32;6.18;;;2.53;;
80136;SDS011;69466;55.948;37.484;2023-07-31T14:30:58;6.43;;;2.28;;
80136;SDS011;69466;55.948;37.484;2023-07-31T14:33:24;8.27;;;3.15;;
80136;SDS011;69466;55.948;37.484;2023-07-31T14:35:50;4.90;;;2.10;;
80136;SDS011;69466;55.948;37.484;2023-07-31T14:38:15;4.20;;;2.10;;
80136;SDS011;69466;55.948;37.484;2023-07-31T14:40:41;4.63;;;2.15;;
80136;SDS011;69466;55.948;37.484;2023-07-31T14:43:08;4.47;;;2.25;;